Kansas City, Missouri
Current Conditions -  °F | °C
As of 9:54 AM on Friday 28 Nov 2014 (Local Time) from KMKC Reporting Station
Clear Clear  
Wind Chill: 41°   Ceiling: Unl
Heat Index: 47°   Visibility: 10mi
Dew Point: 27°   Wind: 15mph
Humidity: 46%   Direction: 210°SSW
Pressure: 29.96"   Gusts: NA
Location:  39.1°N, 94.58°W
Report Text: KMKC 281554Z AUTO 21013KT 10SM CLR 08/M03 A2996 RMK AO2 SLP151 T00831028
Loading
Personal Weather Stations






























Interactive Weather Map New forecast layout! Learn more

10-Day Weather Forecast

Advertisements
Track Severe Weather on mobile